Corwen, United Kingdom
Current Conditions -  °F | °C
As of 11:50 AM on Tuesday 21 Oct 2014 (Local Time) from EGNR Reporting Station
Scattered Clouds Scattered Clouds  
Wind Chill: 54°   Ceiling: Unl
Heat Index: 54°   Visibility: 6mi
Dew Point: 43°   Wind: 25mph
Humidity: 67%   Direction: 290°WNW
Pressure: 29.65"   Gusts: 40mph
Location:  52.98°N, 3.37°W
Report Text: EGNR 211050Z 29022G35KT 9999 FEW015 SCT039 12/06 Q1004 RESHRA RESHGS
Loading
Personal Weather Stations






























Interactive Weather Map
Tropical Storm Tracking
New forecast layout! Learn more

10-Day Weather Forecast

Advertisements
Track Severe Weather on mobile